PWSweather.com
Personal Weather Stations
Station Observations
WIKENOS15
47th Ave & 30th St, Kenosha, WI 53144

47th Ave & 30th StKenosha, WI 53144

Lat: 42.612, Lon: -87.866

Elevation: 697

Station Type: Oregon Scientific 100N

Latest ConditionsUpdated 7:15:01 PM CDT Friday, Apr 24, 2015
Currently Today's Max Today's Min Today's Average
Temperature 38.6°F3.7°C 51.1°F10.6°C 29.9°F-1.2°C 39.6°F4.2°C
Dew Point 35.6°F2.0°C 37.1°F2.8°C 25.9°F-3.4°C 31.2°F-0.4°C
Winds 0.1 mph ENE0.2 kmh ENE 4.7 mph SE7.6 kmh SE - 1.1 mph 1.8 kmh
Wind Gusts 0.8 mph1.3 kmh 6.8 mph10.9 kmh - -
Humidity 89% 90% 47% 73%
Pressure 29.96 in1014.6 mb 30.08 in1018.6 mb 29.96 in1014.6 mb -
Precipitation - 0.13 in3.3 mm - -
Hour Temp Dew Point Humidity Winds Wind Gusts Pressure Precip Precip Rate Daily Precip Total
07:15 PM 38.6°F3.7°C 35.6°F2.0°C 89% 0.1 mph ENE0.2 kmh ENE 0.8 mph1.3 kmh 29.96 in1014.6 mb - 0.02 in0.5 mm 0.13 in3.3 mm
07:00 PM 39.2°F4.0°C 36.2°F2.3°C 89% Calm Calm -- 29.96 in1014.6 mb - 0.03 in0.8 mm 0.11 in2.8 mm
06:45 PM 39.4°F4.1°C 36.1°F2.3°C 88% 2.3 mph ENE3.7 kmh ENE 3.7 mph6.0 kmh 29.96 in1014.6 mb - 0.00 in0.0 mm 0.08 in2.0 mm
06:30 PM 39.9°F4.4°C 36.9°F2.7°C 89% Calm Calm 0.8 mph1.3 kmh 29.97 in1014.9 mb - 0.01 in0.3 mm 0.08 in2.0 mm
06:15 PM 39.8°F4.3°C 36.8°F2.7°C 89% 0.2 mph NE0.3 kmh NE 0.8 mph1.3 kmh 29.96 in1014.6 mb - 0.00 in0.0 mm 0.07 in1.8 mm
06:00 PM 39.8°F4.3°C 36.8°F2.7°C 89% 0.3 mph ESE0.5 kmh ESE 0.8 mph1.3 kmh 29.98 in1015.2 mb - 0.01 in0.3 mm 0.07 in1.8 mm
05:45 PM 39.7°F4.3°C 37.0°F2.8°C 90% 0.4 mph ESE0.6 kmh ESE 0.8 mph1.3 kmh 29.99 in1015.6 mb - 0.00 in0.0 mm 0.06 in1.5 mm
05:30 PM 39.6°F4.2°C 36.9°F2.7°C 90% Calm Calm -- 29.98 in1015.2 mb - 0.01 in0.3 mm 0.06 in1.5 mm
05:15 PM 39.8°F4.3°C 37.1°F2.8°C 90% Calm Calm -- 29.98 in1015.2 mb - 0.01 in0.3 mm 0.05 in1.3 mm
05:00 PM 39.7°F4.3°C 36.7°F2.6°C 89% Calm Calm -- 29.98 in1015.2 mb - 0.01 in0.3 mm 0.04 in1.0 mm
04:45 PM 40.1°F4.5°C 35.9°F2.2°C 85% Calm Calm 0.8 mph1.3 kmh 29.98 in1015.2 mb - 0.02 in0.5 mm 0.03 in0.8 mm
04:30 PM 41.6°F5.3°C 35.9°F2.2°C 80% Calm Calm -- 29.98 in1015.2 mb - 0.01 in0.3 mm 0.01 in0.3 mm
04:15 PM 42.6°F5.9°C 35.2°F1.8°C 75% 0.5 mph ESE0.8 kmh ESE 0.8 mph1.3 kmh 29.98 in1015.2 mb - 0.00 in0.0 mm 0.00 in0.0 mm
04:00 PM 43.7°F6.5°C 35.3°F1.8°C 72% 1.1 mph ESE1.8 kmh ESE 2.3 mph3.7 kmh 29.97 in1014.9 mb - 0.00 in0.0 mm 0.00 in0.0 mm
03:45 PM 44.2°F6.8°C 34.3°F1.3°C 68% 0.6 mph E1.0 kmh E -- 29.97 in1014.9 mb - 0.00 in0.0 mm 0.00 in0.0 mm
03:30 PM 45.0°F7.2°C 33.5°F0.8°C 64% 1.4 mph ESE2.3 kmh ESE 3.0 mph4.8 kmh 29.98 in1015.2 mb - 0.00 in0.0 mm 0.00 in0.0 mm
03:15 PM 45.5°F7.5°C 32.8°F0.4°C 61% 3.1 mph ESE5.0 kmh ESE 4.5 mph7.2 kmh 29.98 in1015.2 mb - 0.00 in0.0 mm 0.00 in0.0 mm
03:00 PM 46.5°F8.1°C 32.9°F0.5°C 59% 2.2 mph SE3.5 kmh SE 3.7 mph6.0 kmh 29.99 in1015.6 mb - 0.00 in0.0 mm 0.00 in0.0 mm
02:45 PM 47.5°F8.6°C 34.7°F1.5°C 61% 2.4 mph SE3.9 kmh SE 3.7 mph6.0 kmh 30.00 in1015.9 mb - 0.00 in0.0 mm 0.00 in0.0 mm
02:30 PM 46.9°F8.3°C 35.3°F1.8°C 64% 2.0 mph E3.2 kmh E 3.0 mph4.8 kmh 30.00 in1015.9 mb - 0.00 in0.0 mm 0.00 in0.0 mm
02:15 PM 46.7°F8.2°C 34.3°F1.3°C 62% 2.9 mph ESE4.7 kmh ESE 4.5 mph7.2 kmh 30.01 in1016.3 mb - 0.00 in0.0 mm 0.00 in0.0 mm
02:00 PM 47.4°F8.6°C 34.2°F1.2°C 60% 2.5 mph E4.0 kmh E 2.3 mph3.7 kmh 30.02 in1016.6 mb - 0.00 in0.0 mm 0.00 in0.0 mm
01:45 PM 46.9°F8.3°C 33.3°F0.7°C 59% 2.3 mph ESE3.7 kmh ESE 5.2 mph8.4 kmh 30.02 in1016.6 mb - 0.00 in0.0 mm 0.00 in0.0 mm
01:30 PM 46.5°F8.1°C 33.3°F0.7°C 60% 2.1 mph NE3.4 kmh NE 3.0 mph4.8 kmh 30.02 in1016.6 mb - 0.00 in0.0 mm 0.00 in0.0 mm
01:15 PM 47.5°F8.6°C 32.6°F0.3°C 56% 2.5 mph E4.0 kmh E 4.5 mph7.2 kmh 30.03 in1016.9 mb - 0.00 in0.0 mm 0.00 in0.0 mm
01:00 PM 49.4°F9.7°C 33.0°F0.6°C 53% 3.2 mph SE5.1 kmh SE 3.0 mph4.8 kmh 30.03 in1016.9 mb - 0.00 in0.0 mm 0.00 in0.0 mm
12:45 PM 50.9°F10.5°C 33.8°F1.0°C 52% 3.0 mph E4.8 kmh E 5.2 mph8.4 kmh 30.03 in1016.9 mb - 0.00 in0.0 mm 0.00 in0.0 mm
12:30 PM 51.1°F10.6°C 33.1°F0.6°C 50% 3.0 mph ESE4.8 kmh ESE 6.0 mph9.7 kmh 30.04 in1017.3 mb - 0.00 in0.0 mm 0.00 in0.0 mm
12:15 PM 51.1°F10.6°C 31.6°F-0.2°C 47% 2.6 mph E4.2 kmh E 3.0 mph4.8 kmh 30.05 in1017.6 mb - 0.00 in0.0 mm 0.00 in0.0 mm
12:00 PM 50.5°F10.3°C 32.0°F0.0°C 49% 2.6 mph E4.2 kmh E 4.5 mph7.2 kmh 30.05 in1017.6 mb - 0.00 in0.0 mm 0.00 in0.0 mm
11:45 AM 50.2°F10.1°C 33.7°F0.9°C 53% 2.1 mph ESE3.4 kmh ESE 3.0 mph4.8 kmh 30.05 in1017.6 mb - 0.00 in0.0 mm 0.00 in0.0 mm
11:30 AM 49.7°F9.8°C 32.3°F0.2°C 51% 3.0 mph ESE4.8 kmh ESE 5.2 mph8.4 kmh 30.06 in1017.9 mb - 0.00 in0.0 mm 0.00 in0.0 mm
11:15 AM 49.5°F9.7°C 33.1°F0.6°C 53% 2.8 mph ESE4.5 kmh ESE 3.0 mph4.8 kmh 30.07 in1018.3 mb - 0.00 in0.0 mm 0.00 in0.0 mm
11:00 AM 48.4°F9.1°C 34.3°F1.3°C 58% 2.3 mph E3.7 kmh E 2.3 mph3.7 kmh 30.07 in1018.3 mb - 0.00 in0.0 mm 0.00 in0.0 mm
10:45 AM 47.7°F8.7°C 31.4°F-0.3°C 53% 4.7 mph SE7.6 kmh SE 6.8 mph10.9 kmh 30.06 in1017.9 mb - 0.00 in0.0 mm 0.00 in0.0 mm
10:30 AM 48.1°F8.9°C 32.2°F0.1°C 54% 2.5 mph E4.0 kmh E 3.7 mph6.0 kmh 30.06 in1017.9 mb - 0.00 in0.0 mm 0.00 in0.0 mm
10:15 AM 47.7°F8.7°C 31.9°F-0.1°C 54% 3.1 mph E5.0 kmh E 4.5 mph7.2 kmh 30.07 in1018.3 mb - 0.00 in0.0 mm 0.00 in0.0 mm
10:00 AM 46.3°F7.9°C 32.7°F0.4°C 59% 0.5 mph SE0.8 kmh SE 1.5 mph2.4 kmh 30.07 in1018.3 mb - 0.00 in0.0 mm 0.00 in0.0 mm
09:45 AM 45.6°F7.6°C 31.7°F-0.2°C 58% 1.4 mph E2.3 kmh E 3.0 mph4.8 kmh 30.07 in1018.3 mb - 0.00 in0.0 mm 0.00 in0.0 mm
09:30 AM 46.3°F7.9°C 31.9°F-0.1°C 57% 1.4 mph ENE2.3 kmh ENE 2.3 mph3.7 kmh 30.07 in1018.3 mb - 0.00 in0.0 mm 0.00 in0.0 mm
09:15 AM 47.9°F8.8°C 30.7°F-0.7°C 51% 1.7 mph E2.7 kmh E 3.0 mph4.8 kmh 30.08 in1018.6 mb - 0.00 in0.0 mm 0.00 in0.0 mm
09:00 AM 47.7°F8.7°C 30.4°F-0.9°C 51% 1.7 mph ENE2.7 kmh ENE 3.0 mph4.8 kmh 30.07 in1018.3 mb - 0.00 in0.0 mm 0.00 in0.0 mm
08:45 AM 47.3°F8.5°C 32.4°F0.2°C 56% 0.4 mph E0.6 kmh E 1.5 mph2.4 kmh 30.07 in1018.3 mb - 0.00 in0.0 mm 0.00 in0.0 mm
08:30 AM 46.8°F8.2°C 33.7°F0.9°C 60% 0.4 mph E0.6 kmh E 1.5 mph2.4 kmh 30.07 in1018.3 mb - 0.00 in0.0 mm 0.00 in0.0 mm
08:15 AM 43.3°F6.3°C 33.8°F1.0°C 69% Calm Calm -- 30.08 in1018.6 mb - 0.00 in0.0 mm 0.00 in0.0 mm
08:00 AM 40.5°F4.7°C 29.7°F-1.3°C 65% Calm Calm -- 30.08 in1018.6 mb - 0.00 in0.0 mm 0.00 in0.0 mm
07:45 AM 38.6°F3.7°C 31.1°F-0.5°C 74% 0.4 mph SW0.6 kmh SW 0.8 mph1.3 kmh 30.08 in1018.6 mb - 0.00 in0.0 mm 0.00 in0.0 mm
07:30 AM 36.8°F2.7°C 30.9°F-0.6°C 79% 0.8 mph SW1.3 kmh SW 1.5 mph2.4 kmh 30.08 in1018.6 mb - 0.00 in0.0 mm 0.00 in0.0 mm
07:15 AM 34.8°F1.6°C 30.4°F-0.9°C 84% 1.0 mph SW1.6 kmh SW 1.5 mph2.4 kmh 30.07 in1018.3 mb - 0.00 in0.0 mm 0.00 in0.0 mm
07:00 AM 32.6°F0.3°C 28.6°F-1.9°C 85% 1.1 mph SW1.8 kmh SW 1.5 mph2.4 kmh 30.07 in1018.3 mb - 0.00 in0.0 mm 0.00 in0.0 mm
06:45 AM 31.1°F-0.5°C 27.4°F-2.6°C 86% 0.9 mph SW1.4 kmh SW 1.5 mph2.4 kmh 30.07 in1018.3 mb - 0.00 in0.0 mm 0.00 in0.0 mm
06:30 AM 30.1°F-1.1°C 26.4°F-3.1°C 86% 1.1 mph SW1.8 kmh SW 1.5 mph2.4 kmh 30.07 in1018.3 mb - 0.00 in0.0 mm 0.00 in0.0 mm
06:15 AM 30.3°F-0.9°C 26.0°F-3.3°C 84% 1.2 mph SW1.9 kmh SW 1.5 mph2.4 kmh 30.07 in1018.3 mb - 0.00 in0.0 mm 0.00 in0.0 mm
06:00 AM 30.1°F-1.1°C 25.9°F-3.4°C 84% Calm Calm -- 30.06 in1017.9 mb - 0.00 in0.0 mm 0.00 in0.0 mm
05:45 AM 31.1°F-0.5°C 26.2°F-3.2°C 82% Calm Calm -- 30.05 in1017.6 mb - 0.00 in0.0 mm 0.00 in0.0 mm
05:30 AM 30.9°F-0.6°C 26.1°F-3.3°C 82% 0.9 mph SW1.4 kmh SW 1.5 mph2.4 kmh 30.05 in1017.6 mb - 0.00 in0.0 mm 0.00 in0.0 mm
05:15 AM 30.8°F-0.7°C 26.5°F-3.1°C 84% Calm Calm -- 30.05 in1017.6 mb - 0.00 in0.0 mm 0.00 in0.0 mm
05:00 AM 31.3°F-0.4°C 27.1°F-2.7°C 84% Calm Calm -- 30.05 in1017.6 mb - 0.00 in0.0 mm 0.00 in0.0 mm
04:45 AM 30.1°F-1.1°C 26.4°F-3.1°C 86% Calm Calm -- 30.05 in1017.6 mb - 0.00 in0.0 mm 0.00 in0.0 mm
04:30 AM 30.2°F-1.0°C 26.5°F-3.1°C 86% Calm Calm -- 30.06 in1017.9 mb - 0.00 in0.0 mm 0.00 in0.0 mm
04:15 AM 29.9°F-1.2°C 26.5°F-3.1°C 87% Calm Calm -- 30.06 in1017.9 mb - 0.00 in0.0 mm 0.00 in0.0 mm
04:00 AM 30.1°F-1.1°C 26.7°F-2.9°C 87% 0.5 mph SW0.8 kmh SW 0.8 mph1.3 kmh 30.06 in1017.9 mb - 0.00 in0.0 mm 0.00 in0.0 mm
03:45 AM 30.3°F-0.9°C 26.3°F-3.2°C 85% 1.1 mph SW1.8 kmh SW 1.5 mph2.4 kmh 30.06 in1017.9 mb - 0.00 in0.0 mm 0.00 in0.0 mm
03:30 AM 30.4°F-0.9°C 26.5°F-3.1°C 85% 0.6 mph SW1.0 kmh SW 0.8 mph1.3 kmh 30.06 in1017.9 mb - 0.00 in0.0 mm 0.00 in0.0 mm
03:15 AM 30.0°F-1.1°C 26.3°F-3.2°C 86% 0.9 mph SW1.4 kmh SW 1.5 mph2.4 kmh 30.05 in1017.6 mb - 0.00 in0.0 mm 0.00 in0.0 mm
03:00 AM 30.5°F-0.8°C 26.5°F-3.1°C 85% 0.8 mph SW1.3 kmh SW 1.5 mph2.4 kmh 30.05 in1017.6 mb - 0.00 in0.0 mm 0.00 in0.0 mm
02:45 AM 31.4°F-0.3°C 27.4°F-2.6°C 85% 0.6 mph SW1.0 kmh SW 1.5 mph2.4 kmh 30.05 in1017.6 mb - 0.00 in0.0 mm 0.00 in0.0 mm
02:30 AM 29.9°F-1.2°C 26.2°F-3.2°C 86% 1.0 mph SW1.6 kmh SW 1.5 mph2.4 kmh 30.05 in1017.6 mb - 0.00 in0.0 mm 0.00 in0.0 mm
02:15 AM 31.0°F-0.6°C 27.1°F-2.7°C 85% 0.8 mph SW1.3 kmh SW 1.5 mph2.4 kmh 30.05 in1017.6 mb - 0.00 in0.0 mm 0.00 in0.0 mm
02:00 AM 31.2°F-0.4°C 27.2°F-2.7°C 85% 0.8 mph SW1.3 kmh SW 1.5 mph2.4 kmh 30.05 in1017.6 mb - 0.00 in0.0 mm 0.00 in0.0 mm
01:45 AM 32.0°F0.0°C 27.4°F-2.6°C 83% Calm Calm -- 30.05 in1017.6 mb - 0.00 in0.0 mm 0.00 in0.0 mm
01:30 AM 32.1°F0.1°C 27.5°F-2.5°C 83% 0.5 mph SW0.8 kmh SW 0.8 mph1.3 kmh 30.05 in1017.6 mb - 0.00 in0.0 mm 0.00 in0.0 mm
01:15 AM 31.8°F-0.1°C 27.5°F-2.5°C 84% 0.8 mph SW1.3 kmh SW 0.8 mph1.3 kmh 30.05 in1017.6 mb - 0.00 in0.0 mm 0.00 in0.0 mm
01:00 AM 31.7°F-0.2°C 27.1°F-2.7°C 83% 0.6 mph SW1.0 kmh SW 1.5 mph2.4 kmh 30.05 in1017.6 mb - 0.00 in0.0 mm 0.00 in0.0 mm
12:45 AM 32.1°F0.1°C 27.5°F-2.5°C 83% 0.6 mph SW1.0 kmh SW 0.8 mph1.3 kmh 30.05 in1017.6 mb - 0.00 in0.0 mm 0.00 in0.0 mm
12:30 AM 32.2°F0.1°C 27.3°F-2.6°C 82% 1.1 mph SW1.8 kmh SW 1.5 mph2.4 kmh 30.05 in1017.6 mb - 0.00 in0.0 mm 0.00 in0.0 mm
12:15 AM 32.8°F0.4°C 27.6°F-2.4°C 81% Calm Calm -- 30.04 in1017.3 mb - 0.00 in0.0 mm 0.00 in0.0 mm
12:00 AM 32.8°F0.4°C 27.9°F-2.3°C 82% 0.2 mph SW0.3 kmh SW 0.8 mph1.3 kmh 30.04 in1017.3 mb - 0.00 in0.0 mm 0.00 in0.0 mm